Gloria, Brazil
Current Conditions -  °F | °C
As of 8:00 PM on Friday 24 Oct 2014 (Local Time) from SBAR Reporting Station
Scattered Clouds Scattered Clouds  
Wind Chill: 77°   Ceiling: Unl
Heat Index: 79°   Visibility: 6mi
Dew Point: 70°   Wind: 9mph
Humidity: 78%   Direction: 150°SSE
Pressure: 29.94"   Gusts: NA
Location:  9.34°S, 38.25°W
Report Text: SBAR 242300Z 15008KT 9999 SCT013 SCT070 25/21 Q1014 RERA
Loading
Personal Weather Stations






























Interactive Weather Map
Tropical Storm Tracking
New forecast layout! Learn more

10-Day Weather Forecast

Advertisements
Track Severe Weather on mobile